createdAt,value
2019-02-25T00:00:56.751Z,5.22
2019-02-25T00:01:37.318Z,5.23
2019-02-25T00:02:24.769Z,5.22
2019-02-25T00:03:00.642Z,5.21
2019-02-25T00:03:36.060Z,5.20
2019-02-25T00:04:11.797Z,5.19
2019-02-25T00:04:47.490Z,5.21
2019-02-25T00:05:23.109Z,5.19
2019-02-25T00:05:58.815Z,5.18
2019-02-25T00:06:34.201Z,5.16
2019-02-25T00:07:09.629Z,5.13
2019-02-25T00:07:45.021Z,5.10
2019-02-25T00:08:20.414Z,5.11
2019-02-25T00:08:55.821Z,5.07
2019-02-25T00:09:31.218Z,5.08
2019-02-25T00:10:07.232Z,4.99
2019-02-25T00:10:42.639Z,5.04
2019-02-25T00:11:18.325Z,5.02
2019-02-25T00:11:54.024Z,5.00
2019-02-25T00:12:29.448Z,4.97
2019-02-25T00:13:05.126Z,4.97
2019-02-25T00:13:40.579Z,4.94
2019-02-25T00:14:16.232Z,4.90
2019-02-25T00:14:51.625Z,4.85
2019-02-25T00:15:27.339Z,4.86
2019-02-25T00:16:03.089Z,4.93
2019-02-25T00:16:38.523Z,4.93
2019-02-25T00:17:14.186Z,4.90
2019-02-25T00:17:50.200Z,4.86
2019-02-25T00:18:25.606Z,4.83
2019-02-25T00:19:01.018Z,4.76
2019-02-25T00:19:36.452Z,4.72
2019-02-25T00:20:11.895Z,4.73
2019-02-25T00:20:47.282Z,4.75
2019-02-25T00:21:23.295Z,4.74
2019-02-25T00:21:58.686Z,4.76
2019-02-25T00:22:34.156Z,4.77
2019-02-25T00:23:09.547Z,4.75
2019-02-25T00:23:45.203Z,4.81
2019-02-25T00:24:20.672Z,4.79
2019-02-25T00:24:56.717Z,4.76
2019-02-25T00:25:32.436Z,4.72
2019-02-25T00:26:08.091Z,4.71
2019-02-25T00:26:43.497Z,4.64
2019-02-25T00:27:19.476Z,4.59
2019-02-25T00:27:54.893Z,4.64
2019-02-25T00:28:30.558Z,4.75
2019-02-25T00:29:05.948Z,4.69
2019-02-25T00:29:41.605Z,4.68
2019-02-25T00:30:17.097Z,4.67
2019-02-25T00:30:52.765Z,4.68
2019-02-25T00:31:28.452Z,4.64
2019-02-25T00:32:03.848Z,4.71
2019-02-25T00:32:39.291Z,4.80
2019-02-25T00:33:14.669Z,4.85
2019-02-25T00:33:50.095Z,4.80
2019-02-25T00:34:25.492Z,4.72
2019-02-25T00:35:01.140Z,4.71
2019-02-25T00:35:36.871Z,4.65
2019-02-25T00:36:12.260Z,4.62
2019-02-25T00:36:47.651Z,4.61
2019-02-25T00:37:23.060Z,4.58
2019-02-25T00:37:58.463Z,4.66
2019-02-25T00:38:34.193Z,4.61
2019-02-25T00:39:09.757Z,4.63
2019-02-25T00:39:45.460Z,4.65
2019-02-25T00:40:20.859Z,4.66
2019-02-25T00:40:56.261Z,4.69
2019-02-25T00:41:31.660Z,4.65
2019-02-25T00:42:07.313Z,4.69
2019-02-25T00:42:43.089Z,4.75
2019-02-25T00:43:18.487Z,4.73
2019-02-25T00:43:54.196Z,4.70
2019-02-25T00:44:29.933Z,4.68
2019-02-25T00:45:05.825Z,4.70
2019-02-25T00:45:41.204Z,4.69
2019-02-25T00:46:16.905Z,4.69
2019-02-25T00:46:52.792Z,4.72
2019-02-25T00:47:28.226Z,4.80
2019-02-25T00:48:03.655Z,4.77
2019-02-25T00:48:39.221Z,4.76
2019-02-25T00:49:14.873Z,4.71
2019-02-25T00:49:50.518Z,4.80
2019-02-25T00:50:25.918Z,4.77
2019-02-25T00:51:01.316Z,4.72
2019-02-25T00:51:36.718Z,4.73
2019-02-25T00:52:12.093Z,4.75
2019-02-25T00:52:47.804Z,4.79
2019-02-25T00:53:23.484Z,4.79
2019-02-25T00:53:59.200Z,4.82
2019-02-25T00:54:34.697Z,4.85
2019-02-25T00:55:10.416Z,4.82
2019-02-25T00:55:45.908Z,5.02
2019-02-25T00:56:21.352Z,4.98
2019-02-25T00:56:56.844Z,5.02
2019-02-25T00:57:32.321Z,5.02
2019-02-25T00:58:07.951Z,5.01
2019-02-25T00:58:43.670Z,4.98
2019-02-25T00:59:19.383Z,4.98
2019-02-25T00:59:54.816Z,5.13
2019-02-25T01:00:30.231Z,5.01
2019-02-25T01:01:06.092Z,5.01
2019-02-25T01:01:41.491Z,5.02
2019-02-25T01:02:16.911Z,5.07
2019-02-25T01:02:52.663Z,5.11
2019-02-25T01:03:28.158Z,5.11
2019-02-25T01:04:03.849Z,5.15
2019-02-25T01:04:39.334Z,5.10
2019-02-25T01:05:15.813Z,5.09
2019-02-25T01:05:51.186Z,5.12
2019-02-25T01:06:26.625Z,5.15
2019-02-25T01:07:02.280Z,5.12
2019-02-25T01:07:37.650Z,5.11
2019-02-25T01:08:13.171Z,5.10
2019-02-25T01:08:48.898Z,5.12
2019-02-25T01:09:24.575Z,5.14
2019-02-25T01:10:02.288Z,5.11
2019-02-25T01:10:37.701Z,5.09
2019-02-25T01:11:13.067Z,5.09
2019-02-25T01:11:48.749Z,5.06
2019-02-25T01:12:24.146Z,5.10
2019-02-25T01:13:00.231Z,5.07
2019-02-25T01:13:35.637Z,5.12
2019-02-25T01:14:11.021Z,5.14
2019-02-25T01:14:46.746Z,5.21
2019-02-25T01:15:22.146Z,5.29
2019-02-25T01:15:57.865Z,5.24
2019-02-25T01:16:33.295Z,5.20
2019-02-25T01:17:08.676Z,5.15
2019-02-25T01:17:44.606Z,5.16
2019-02-25T01:18:20.069Z,5.13
2019-02-25T01:18:55.528Z,5.16
2019-02-25T01:19:31.225Z,5.19
2019-02-25T01:20:06.931Z,5.13
2019-02-25T01:20:42.863Z,5.09
2019-02-25T01:21:18.285Z,5.08
2019-02-25T01:21:53.699Z,5.07
2019-02-25T01:22:29.178Z,5.07
2019-02-25T01:23:04.607Z,5.09
2019-02-25T01:23:40.108Z,5.10
2019-02-25T01:24:15.498Z,5.12
2019-02-25T01:24:51.218Z,5.08
2019-02-25T01:25:26.678Z,5.08
2019-02-25T01:26:02.388Z,5.13
2019-02-25T01:26:37.785Z,5.17
2019-02-25T01:27:13.186Z,5.17
2019-02-25T01:27:48.949Z,5.16
2019-02-25T01:28:24.770Z,5.10
2019-02-25T01:29:00.436Z,5.10
2019-02-25T01:29:36.078Z,5.09
2019-02-25T01:30:12.372Z,5.16
2019-02-25T01:30:48.051Z,5.09
2019-02-25T01:31:23.722Z,5.05
2019-02-25T01:31:59.380Z,5.05
2019-02-25T01:32:35.080Z,5.03
2019-02-25T01:33:10.500Z,4.96
2019-02-25T01:33:46.210Z,4.95
2019-02-25T01:34:21.698Z,4.94
2019-02-25T01:34:57.338Z,4.90
2019-02-25T01:35:32.724Z,4.91
2019-02-25T01:36:08.132Z,4.94
2019-02-25T01:36:43.525Z,4.92
2019-02-25T01:37:18.912Z,4.95
2019-02-25T01:37:54.626Z,4.95
2019-02-25T01:38:30.631Z,4.91
2019-02-25T01:39:08.132Z,4.90
2019-02-25T01:39:44.119Z,4.88
2019-02-25T01:40:19.515Z,4.83
2019-02-25T01:40:54.900Z,4.83
2019-02-25T01:41:30.370Z,4.82
2019-02-25T01:42:06.023Z,4.84
2019-02-25T01:42:41.423Z,4.84
2019-02-25T01:43:17.110Z,4.88
2019-02-25T01:43:52.504Z,4.87
2019-02-25T01:44:27.890Z,4.86
2019-02-25T01:45:03.593Z,5.02
2019-02-25T01:45:39.247Z,5.02
2019-02-25T01:46:14.696Z,4.94
2019-02-25T01:46:50.356Z,4.94
2019-02-25T01:47:26.006Z,4.94
2019-02-25T01:48:01.379Z,4.94
2019-02-25T01:48:37.091Z,4.99
2019-02-25T01:49:12.521Z,4.99
2019-02-25T01:49:48.190Z,4.94
2019-02-25T01:50:23.828Z,4.94
2019-02-25T01:50:59.564Z,5.02
2019-02-25T01:51:34.964Z,5.02
2019-02-25T01:52:10.624Z,4.96
2019-02-25T01:52:46.288Z,5.10
2019-02-25T01:53:22.119Z,5.03
2019-02-25T01:53:57.506Z,5.06
2019-02-25T01:54:32.968Z,5.11
2019-02-25T01:55:08.949Z,5.06
2019-02-25T01:55:44.637Z,5.08
2019-02-25T01:56:20.036Z,5.02
2019-02-25T01:56:55.438Z,5.06
2019-02-25T01:57:30.848Z,4.99
2019-02-25T01:58:06.269Z,4.95
2019-02-25T01:58:41.714Z,5.07
2019-02-25T01:59:17.475Z,5.03
2019-02-25T01:59:52.858Z,5.07
2019-02-25T02:00:28.252Z,5.18
2019-02-25T02:01:03.794Z,5.13
2019-02-25T02:01:39.296Z,5.11
2019-02-25T02:02:14.795Z,5.02
2019-02-25T02:02:50.223Z,4.97
2019-02-25T02:03:25.657Z,4.94
2019-02-25T02:04:01.307Z,4.92
2019-02-25T02:04:36.953Z,4.87
2019-02-25T02:05:12.452Z,4.88
2019-02-25T02:05:48.115Z,5.03
2019-02-25T02:06:23.767Z,4.89
2019-02-25T02:06:59.401Z,4.89
2019-02-25T02:07:35.175Z,4.86
2019-02-25T02:08:10.608Z,4.92
2019-02-25T02:08:46.163Z,4.89
2019-02-25T02:09:21.612Z,4.92
2019-02-25T02:09:57.025Z,4.91
2019-02-25T02:10:32.700Z,4.93
2019-02-25T02:11:08.085Z,4.88
2019-02-25T02:11:43.805Z,4.86
2019-02-25T02:12:19.196Z,4.83
2019-02-25T02:12:54.591Z,4.92
2019-02-25T02:13:30.017Z,4.95
2019-02-25T02:14:05.482Z,5.01
2019-02-25T02:14:40.865Z,4.97
2019-02-25T02:15:16.521Z,4.97
2019-02-25T02:15:51.909Z,4.96
2019-02-25T02:16:27.304Z,4.87
2019-02-25T02:17:02.966Z,4.91
2019-02-25T02:17:38.646Z,4.85
2019-02-25T02:18:14.088Z,4.82
2019-02-25T02:18:49.774Z,4.85
2019-02-25T02:19:25.443Z,4.85
2019-02-25T02:20:00.819Z,4.82
2019-02-25T02:20:36.199Z,4.81
2019-02-25T02:21:12.107Z,4.78
2019-02-25T02:21:47.801Z,4.74
2019-02-25T02:22:23.192Z,4.72
2019-02-25T02:22:58.599Z,4.74
2019-02-25T02:23:34.030Z,4.73
2019-02-25T02:24:09.694Z,4.74
2019-02-25T02:24:45.141Z,4.73
2019-02-25T02:25:20.519Z,4.75
2019-02-25T02:25:55.961Z,4.72
2019-02-25T02:26:31.338Z,4.70
2019-02-25T02:27:07.001Z,4.81
2019-02-25T02:27:42.946Z,4.80
2019-02-25T02:28:18.626Z,4.79
2019-02-25T02:28:54.057Z,4.79
2019-02-25T02:29:29.699Z,4.91
2019-02-25T02:30:06.474Z,5.01
2019-02-25T02:30:41.883Z,4.98
2019-02-25T02:31:17.397Z,4.94
2019-02-25T02:31:52.836Z,5.01
2019-02-25T02:32:28.231Z,4.94
2019-02-25T02:33:04.019Z,5.01
2019-02-25T02:33:39.958Z,5.13
2019-02-25T02:34:15.388Z,5.06
2019-02-25T02:34:51.055Z,5.02
2019-02-25T02:35:26.719Z,4.95
2019-02-25T02:36:02.111Z,4.93
2019-02-25T02:36:37.789Z,5.07
2019-02-25T02:37:13.283Z,5.13
2019-02-25T02:37:48.966Z,5.09
2019-02-25T02:38:24.358Z,4.99
2019-02-25T02:39:00.067Z,4.91
2019-02-25T02:39:35.462Z,4.88
2019-02-25T02:40:12.509Z,4.86
2019-02-25T02:40:47.893Z,4.86
2019-02-25T02:41:23.287Z,4.81
2019-02-25T02:42:19.260Z,4.80
2019-02-25T02:42:55.921Z,4.74
2019-02-25T02:43:31.323Z,4.81
2019-02-25T02:44:07.025Z,4.83
2019-02-25T02:44:42.830Z,4.77
2019-02-25T02:45:34.015Z,4.77
2019-02-25T02:46:23.574Z,4.89
2019-02-25T02:47:37.469Z,4.87
2019-02-25T02:48:19.099Z,4.87
2019-02-25T02:49:01.140Z,4.86
2019-02-25T02:49:36.824Z,4.87
2019-02-25T02:50:15.608Z,4.86
2019-02-25T02:50:51.226Z,4.92
2019-02-25T02:51:26.943Z,4.96
2019-02-25T02:52:02.345Z,4.97
2019-02-25T02:52:37.741Z,4.99
2019-02-25T02:53:13.398Z,4.92
2019-02-25T02:53:48.787Z,4.97
2019-02-25T02:54:24.503Z,4.99
2019-02-25T02:55:00.481Z,4.93
2019-02-25T02:55:35.891Z,4.91
2019-02-25T02:56:11.294Z,4.93
2019-02-25T02:56:46.701Z,4.90
2019-02-25T02:57:22.093Z,4.86
2019-02-25T02:57:58.116Z,4.85
2019-02-25T02:58:33.472Z,4.84
2019-02-25T02:59:09.238Z,4.83
2019-02-25T02:59:45.242Z,4.89
2019-02-25T03:00:20.665Z,4.94
2019-02-25T03:00:56.075Z,4.98
2019-02-25T03:01:31.524Z,4.95
2019-02-25T03:02:06.944Z,4.89
2019-02-25T03:02:42.880Z,4.83
2019-02-25T03:03:18.541Z,4.86
2019-02-25T03:03:54.527Z,4.78
2019-02-25T03:04:29.934Z,4.74
2019-02-25T03:05:06.323Z,4.64
2019-02-25T03:05:41.800Z,4.66
2019-02-25T03:06:17.247Z,4.71
2019-02-25T03:06:52.903Z,4.70
2019-02-25T03:07:28.528Z,4.67
2019-02-25T03:08:04.242Z,4.67
2019-02-25T03:08:39.820Z,4.63
2019-02-25T03:09:15.901Z,4.58
2019-02-25T03:09:51.557Z,4.59
2019-02-25T03:10:27.212Z,4.57
2019-02-25T03:11:02.631Z,4.65
2019-02-25T03:11:38.020Z,4.65
2019-02-25T03:12:13.419Z,4.56
2019-02-25T03:12:48.917Z,4.29
2019-02-25T03:13:24.298Z,4.52
2019-02-25T03:13:59.791Z,4.44
2019-02-25T03:14:35.175Z,4.43
2019-02-25T03:15:13.393Z,4.39
2019-02-25T03:15:49.055Z,4.35
2019-02-25T03:16:24.700Z,4.40
2019-02-25T03:17:00.108Z,4.39
2019-02-25T03:17:35.746Z,4.37
2019-02-25T03:18:11.166Z,4.39
2019-02-25T03:18:46.576Z,4.37
2019-02-25T03:19:22.019Z,4.41
2019-02-25T03:19:57.452Z,4.44
2019-02-25T03:20:32.948Z,4.62
2019-02-25T03:21:08.353Z,4.55
2019-02-25T03:21:44.027Z,4.53
2019-02-25T03:22:19.524Z,4.47
2019-02-25T03:22:54.934Z,4.46
2019-02-25T03:23:30.342Z,4.56
2019-02-25T03:24:05.779Z,4.50
2019-02-25T03:24:41.467Z,4.62
2019-02-25T03:25:17.506Z,4.47
2019-02-25T03:25:52.881Z,4.40
2019-02-25T03:26:28.284Z,4.38
2019-02-25T03:27:03.947Z,4.33
2019-02-25T03:27:40.231Z,4.33
2019-02-25T03:28:15.690Z,4.33
2019-02-25T03:28:51.338Z,4.35
2019-02-25T03:29:27.039Z,4.31
2019-02-25T03:30:02.450Z,4.22
2019-02-25T03:30:38.100Z,4.17
2019-02-25T03:31:13.629Z,4.12
2019-02-25T03:31:49.053Z,4.27
2019-02-25T03:32:24.472Z,4.38
2019-02-25T03:32:59.988Z,4.26
2019-02-25T03:33:35.397Z,4.22
2019-02-25T03:34:10.950Z,4.36
2019-02-25T03:34:46.396Z,4.33
2019-02-25T03:35:22.067Z,4.21
2019-02-25T03:35:57.478Z,4.11
2019-02-25T03:36:32.904Z,4.12
2019-02-25T03:37:08.323Z,4.06
2019-02-25T03:37:43.903Z,4.05
2019-02-25T03:38:19.702Z,3.98
2019-02-25T03:38:55.112Z,3.91
2019-02-25T03:39:30.811Z,4.04
2019-02-25T03:40:06.963Z,4.12
2019-02-25T03:40:42.739Z,4.22
2019-02-25T03:41:18.127Z,4.15
2019-02-25T03:41:53.526Z,4.16
2019-02-25T03:42:29.379Z,4.09
2019-02-25T03:43:04.779Z,3.99
2019-02-25T03:43:40.199Z,3.97
2019-02-25T03:44:15.669Z,3.93
2019-02-25T03:44:51.094Z,3.89
2019-02-25T03:45:27.157Z,3.88
2019-02-25T03:46:02.810Z,3.86
2019-02-25T03:46:38.617Z,3.84
2019-02-25T03:47:14.051Z,3.89
2019-02-25T03:47:49.827Z,3.86
2019-02-25T03:48:25.233Z,3.85
2019-02-25T03:49:00.651Z,3.88
2019-02-25T03:49:36.356Z,3.84
2019-02-25T03:50:11.777Z,3.81
2019-02-25T03:50:47.477Z,3.79
2019-02-25T03:51:22.880Z,3.76
2019-02-25T03:51:58.262Z,3.78
2019-02-25T03:52:33.991Z,3.77
2019-02-25T03:53:09.516Z,3.75
2019-02-25T03:53:44.969Z,3.74
2019-02-25T03:54:20.367Z,3.68
2019-02-25T03:54:55.804Z,3.69
2019-02-25T03:55:31.496Z,3.67
2019-02-25T03:56:07.131Z,3.62
2019-02-25T03:56:42.838Z,3.63
2019-02-25T03:57:18.233Z,3.60
2019-02-25T03:57:53.722Z,3.60
2019-02-25T03:58:29.118Z,3.61
2019-02-25T03:59:04.800Z,3.68
2019-02-25T03:59:40.331Z,3.68
2019-02-25T04:00:20.499Z,3.61
2019-02-25T04:00:56.181Z,3.63
2019-02-25T04:01:31.570Z,3.58
2019-02-25T04:02:07.122Z,3.60
2019-02-25T04:02:42.823Z,3.56
2019-02-25T04:03:18.515Z,3.61
2019-02-25T04:03:54.245Z,3.62
2019-02-25T04:04:30.358Z,3.59
2019-02-25T04:05:06.589Z,3.59
2019-02-25T04:05:42.008Z,3.63
2019-02-25T04:06:17.729Z,3.63
2019-02-25T04:06:53.164Z,3.59
2019-02-25T04:07:28.512Z,3.56
2019-02-25T04:08:04.161Z,3.58
2019-02-25T04:08:40.011Z,3.57
2019-02-25T04:09:15.681Z,3.63
2019-02-25T04:09:51.333Z,3.59
2019-02-25T04:10:26.775Z,3.59
2019-02-25T04:11:02.794Z,3.55
2019-02-25T04:11:38.186Z,3.55
2019-02-25T04:12:13.628Z,3.60
2019-02-25T04:12:49.059Z,3.60
2019-02-25T04:13:24.469Z,3.58
2019-02-25T04:13:59.876Z,3.60
2019-02-25T04:14:35.578Z,3.61
2019-02-25T04:15:13.239Z,3.63
2019-02-25T04:15:48.650Z,3.65
2019-02-25T04:16:24.321Z,3.64
2019-02-25T04:16:59.714Z,3.66
2019-02-25T04:17:35.373Z,3.64
2019-02-25T04:18:11.078Z,3.60
2019-02-25T04:18:46.544Z,3.62
2019-02-25T04:19:22.486Z,3.57
2019-02-25T04:20:00.500Z,3.51
2019-02-25T04:20:35.279Z,3.49
2019-02-25T04:21:11.060Z,3.43
2019-02-25T04:21:46.463Z,3.38
2019-02-25T04:22:21.870Z,3.41
2019-02-25T04:22:57.849Z,3.44
2019-02-25T04:23:33.536Z,3.37
2019-02-25T04:24:09.329Z,3.26
2019-02-25T04:24:44.844Z,3.23
2019-02-25T04:25:20.542Z,3.25
2019-02-25T04:25:55.952Z,3.33
2019-02-25T04:26:31.599Z,3.34
2019-02-25T04:27:07.283Z,3.27
2019-02-25T04:27:43.007Z,3.28
2019-02-25T04:28:18.721Z,3.34
2019-02-25T04:28:54.107Z,3.28
2019-02-25T04:29:29.779Z,3.26
2019-02-25T04:30:05.818Z,3.26
2019-02-25T04:30:41.213Z,3.24
2019-02-25T04:31:16.667Z,3.22
2019-02-25T04:31:52.087Z,3.20
2019-02-25T04:32:27.726Z,3.17
2019-02-25T04:33:03.485Z,3.17
2019-02-25T04:33:38.891Z,3.19
2019-02-25T04:34:14.378Z,3.17
2019-02-25T04:34:49.733Z,3.15
2019-02-25T04:35:25.168Z,3.17
2019-02-25T04:36:00.586Z,3.19
2019-02-25T04:36:36.248Z,3.26
2019-02-25T04:37:11.728Z,3.33
2019-02-25T04:37:47.136Z,3.22
2019-02-25T04:38:23.123Z,3.25
2019-02-25T04:38:58.811Z,3.21
2019-02-25T04:39:34.448Z,3.32
2019-02-25T04:40:11.276Z,3.26
2019-02-25T04:40:46.723Z,3.19
2019-02-25T04:41:22.114Z,3.12
2019-02-25T04:41:57.770Z,3.12
2019-02-25T04:42:33.194Z,3.12
2019-02-25T04:43:08.656Z,3.14
2019-02-25T04:43:44.425Z,3.16
2019-02-25T04:44:20.081Z,3.10
2019-02-25T04:44:55.596Z,3.10
2019-02-25T04:45:31.015Z,3.12
2019-02-25T04:46:06.411Z,3.12
2019-02-25T04:46:41.852Z,3.08
2019-02-25T04:47:17.580Z,3.12
2019-02-25T04:47:53.310Z,3.10
2019-02-25T04:48:28.979Z,3.08
2019-02-25T04:49:04.369Z,3.08
2019-02-25T04:49:40.187Z,3.09
2019-02-25T04:50:15.742Z,3.08
2019-02-25T04:50:51.138Z,3.13
2019-02-25T04:51:26.800Z,3.14
2019-02-25T04:52:02.479Z,3.18
2019-02-25T04:52:37.977Z,3.14
2019-02-25T04:53:13.355Z,3.08
2019-02-25T04:53:48.767Z,3.12
2019-02-25T04:54:24.183Z,3.12
2019-02-25T04:54:59.586Z,3.06
2019-02-25T04:55:35.042Z,3.08
2019-02-25T04:56:10.948Z,3.10
2019-02-25T04:56:46.463Z,3.07
2019-02-25T04:57:22.110Z,3.02
2019-02-25T04:57:57.518Z,3.00
2019-02-25T04:58:33.212Z,2.96
2019-02-25T04:59:08.661Z,3.03
2019-02-25T04:59:44.368Z,2.93
2019-02-25T05:00:19.861Z,2.98
2019-02-25T05:00:55.239Z,2.97
2019-02-25T05:01:30.650Z,2.95
2019-02-25T05:02:06.162Z,2.99
2019-02-25T05:02:41.603Z,2.97
2019-02-25T05:03:17.555Z,2.94
2019-02-25T05:03:53.568Z,2.98
2019-02-25T05:04:29.218Z,2.96
2019-02-25T05:05:04.798Z,3.02
2019-02-25T05:05:40.323Z,2.95
2019-02-25T05:06:15.755Z,2.94
2019-02-25T05:06:51.458Z,2.95
2019-02-25T05:07:27.128Z,2.97
2019-02-25T05:08:03.134Z,2.93
2019-02-25T05:08:38.542Z,2.96
2019-02-25T05:09:13.975Z,2.99
2019-02-25T05:09:49.470Z,2.97
2019-02-25T05:10:25.098Z,2.95
2019-02-25T05:11:00.574Z,2.94
2019-02-25T05:11:36.787Z,2.96
2019-02-25T05:12:12.249Z,2.87
2019-02-25T05:12:53.251Z,2.87
2019-02-25T05:13:28.907Z,2.84
2019-02-25T05:14:04.307Z,2.87
2019-02-25T05:14:39.991Z,2.86
2019-02-25T05:15:16.747Z,2.80
2019-02-25T05:15:52.187Z,2.82
2019-02-25T05:16:27.606Z,2.80
2019-02-25T05:17:03.343Z,2.79
2019-02-25T05:17:38.757Z,2.76
2019-02-25T05:18:14.448Z,2.75
2019-02-25T05:18:49.859Z,2.80
2019-02-25T05:19:26.053Z,2.81
2019-02-25T05:20:04.561Z,2.76
2019-02-25T05:20:40.018Z,2.75
2019-02-25T05:21:15.555Z,2.74
2019-02-25T05:21:51.258Z,2.67
2019-02-25T05:22:26.925Z,2.68
2019-02-25T05:23:02.602Z,2.73
2019-02-25T05:23:37.994Z,2.70
2019-02-25T05:24:13.708Z,2.67
2019-02-25T05:24:49.443Z,2.70
2019-02-25T05:25:24.908Z,2.74
2019-02-25T05:26:00.386Z,2.73
2019-02-25T05:26:36.078Z,2.70
2019-02-25T05:27:11.798Z,2.69
2019-02-25T05:27:47.217Z,2.66
2019-02-25T05:28:23.188Z,2.63
2019-02-25T05:28:58.572Z,2.64
2019-02-25T05:29:34.252Z,2.60
2019-02-25T05:30:09.960Z,2.60
2019-02-25T05:30:45.416Z,2.61
2019-02-25T05:31:21.356Z,2.68
2019-02-25T05:31:56.881Z,2.61
2019-02-25T05:32:32.314Z,2.61
2019-02-25T05:33:08.826Z,2.60
2019-02-25T05:33:44.247Z,2.62
2019-02-25T05:34:19.649Z,2.60
2019-02-25T05:34:55.311Z,2.62
2019-02-25T05:35:30.834Z,2.57
2019-02-25T05:36:06.228Z,2.56
2019-02-25T05:36:42.022Z,2.56
2019-02-25T05:37:17.432Z,2.58
2019-02-25T05:37:52.916Z,2.54
2019-02-25T05:38:28.557Z,2.68
2019-02-25T05:39:04.958Z,2.60
2019-02-25T05:39:40.379Z,2.57
2019-02-25T05:40:16.056Z,2.62
2019-02-25T05:40:51.491Z,2.59
2019-02-25T05:41:26.892Z,2.64
2019-02-25T05:42:02.297Z,2.59
2019-02-25T05:42:37.687Z,2.55
2019-02-25T05:43:13.110Z,2.58
2019-02-25T05:43:48.508Z,2.55
2019-02-25T05:44:24.193Z,2.57
2019-02-25T05:44:59.579Z,2.57
2019-02-25T05:45:35.010Z,2.61
2019-02-25T05:46:10.431Z,2.62
2019-02-25T05:46:45.835Z,2.67
2019-02-25T05:47:21.235Z,2.77
2019-02-25T05:47:57.040Z,2.82
2019-02-25T05:48:32.542Z,2.83
2019-02-25T05:49:08.260Z,2.77
2019-02-25T05:49:43.701Z,2.78
2019-02-25T05:50:19.142Z,2.78
2019-02-25T05:50:54.650Z,2.77
2019-02-25T05:51:30.338Z,2.74
2019-02-25T05:52:05.732Z,2.80
2019-02-25T05:52:41.155Z,2.81
2019-02-25T05:53:17.156Z,2.82
2019-02-25T05:53:52.581Z,2.81
2019-02-25T05:54:28.254Z,2.76
2019-02-25T05:55:03.700Z,2.82
2019-02-25T05:55:39.148Z,2.80
2019-02-25T05:56:14.622Z,2.81
2019-02-25T05:56:50.020Z,2.82
2019-02-25T05:57:25.699Z,2.86
2019-02-25T05:58:01.347Z,2.87
2019-02-25T05:58:36.836Z,2.84
2019-02-25T05:59:12.326Z,2.87
2019-02-25T05:59:48.092Z,2.89
2019-02-25T06:00:25.473Z,2.85
2019-02-25T06:01:01.195Z,2.91
2019-02-25T06:01:36.705Z,2.87
2019-02-25T06:02:12.448Z,2.88
2019-02-25T06:02:47.846Z,2.83
2019-02-25T06:03:23.244Z,2.85
2019-02-25T06:03:58.886Z,2.84
2019-02-25T06:04:34.291Z,2.88
2019-02-25T06:05:09.957Z,2.83
2019-02-25T06:05:45.671Z,2.80
2019-02-25T06:06:21.074Z,2.79
2019-02-25T06:06:56.545Z,2.74
2019-02-25T06:07:31.962Z,2.71
2019-02-25T06:08:07.377Z,2.70
2019-02-25T06:08:43.075Z,2.81
2019-02-25T06:09:18.461Z,2.82
2019-02-25T06:09:54.447Z,2.78
2019-02-25T06:10:29.850Z,2.76
2019-02-25T06:11:05.612Z,2.78
2019-02-25T06:11:41.019Z,2.77
2019-02-25T06:12:16.853Z,2.74
2019-02-25T06:12:52.499Z,2.76
2019-02-25T06:13:27.958Z,2.83
2019-02-25T06:14:03.508Z,2.78
2019-02-25T06:14:38.924Z,2.80
2019-02-25T06:15:15.386Z,2.75
2019-02-25T06:15:51.496Z,2.67
2019-02-25T06:16:26.885Z,2.58
2019-02-25T06:17:02.262Z,2.62
2019-02-25T06:17:37.928Z,2.56
2019-02-25T06:18:13.608Z,2.51
2019-02-25T06:18:49.008Z,2.47
2019-02-25T06:19:24.398Z,2.43
2019-02-25T06:20:00.157Z,2.46
2019-02-25T06:20:35.667Z,2.57
2019-02-25T06:21:11.133Z,2.54
2019-02-25T06:21:46.941Z,2.56
2019-02-25T06:22:22.628Z,2.58
2019-02-25T06:22:58.392Z,2.54
2019-02-25T06:23:33.806Z,2.51
2019-02-25T06:24:09.499Z,2.52
2019-02-25T06:24:45.179Z,2.46
2019-02-25T06:25:20.874Z,2.47
2019-02-25T06:25:56.345Z,2.43
2019-02-25T06:26:31.713Z,2.42
2019-02-25T06:27:07.111Z,2.51
2019-02-25T06:27:42.676Z,2.57
2019-02-25T06:28:18.154Z,2.54
2019-02-25T06:28:53.543Z,2.45
2019-02-25T06:29:28.936Z,2.43
2019-02-25T06:30:05.251Z,2.38
2019-02-25T06:30:40.730Z,2.38
2019-02-25T06:31:16.574Z,2.32
2019-02-25T06:31:52.341Z,2.29
2019-02-25T06:32:27.738Z,2.22
2019-02-25T06:33:03.146Z,2.14
2019-02-25T06:33:38.657Z,2.11
2019-02-25T06:34:14.240Z,2.19
2019-02-25T06:34:49.644Z,2.10
2019-02-25T06:35:25.312Z,2.10
2019-02-25T06:36:00.994Z,2.10
2019-02-25T06:36:36.933Z,2.05
2019-02-25T06:37:12.382Z,2.10
2019-02-25T06:37:47.822Z,2.02
2019-02-25T06:38:23.207Z,2.02
2019-02-25T06:38:58.932Z,2.01
2019-02-25T06:39:34.335Z,1.94
2019-02-25T06:40:11.526Z,1.95
2019-02-25T06:40:46.969Z,1.96
2019-02-25T06:41:22.936Z,1.96
2019-02-25T06:41:58.346Z,2.01
2019-02-25T06:42:34.297Z,1.97
2019-02-25T06:43:09.782Z,2.01
2019-02-25T06:43:45.229Z,2.01
2019-02-25T06:44:21.218Z,2.08
2019-02-25T06:44:56.625Z,2.10
2019-02-25T06:45:32.284Z,2.14
2019-02-25T06:46:07.723Z,2.10
2019-02-25T06:46:43.225Z,2.10
2019-02-25T06:47:18.896Z,2.12
2019-02-25T06:47:54.302Z,2.17
2019-02-25T06:48:29.962Z,2.18
2019-02-25T06:49:05.612Z,2.15
2019-02-25T06:49:41.048Z,2.20
2019-02-25T06:50:16.687Z,2.20
2019-02-25T06:50:52.103Z,2.21
2019-02-25T06:51:27.784Z,2.22
2019-02-25T06:52:03.449Z,2.21
2019-02-25T06:52:39.449Z,2.22
2019-02-25T06:53:14.897Z,2.28
2019-02-25T06:53:50.379Z,2.24
2019-02-25T06:54:25.767Z,2.17
2019-02-25T06:55:01.187Z,2.17
2019-02-25T06:55:37.031Z,2.19
2019-02-25T06:56:12.888Z,2.21
2019-02-25T06:56:48.651Z,2.18
2019-02-25T06:57:24.051Z,2.18
2019-02-25T06:57:59.730Z,2.20
2019-02-25T06:58:35.226Z,2.27
2019-02-25T06:59:10.656Z,2.24
2019-02-25T06:59:46.709Z,2.25
2019-02-25T07:00:22.387Z,2.28
2019-02-25T07:00:57.790Z,2.24
2019-02-25T07:01:33.529Z,2.21
2019-02-25T07:02:08.972Z,2.17
2019-02-25T07:02:44.718Z,2.15
2019-02-25T07:03:20.119Z,2.17
2019-02-25T07:04:13.118Z,2.18
2019-02-25T07:04:54.137Z,2.18
2019-02-25T07:06:00.778Z,2.16
2019-02-25T07:06:47.302Z,2.25
2019-02-25T07:07:39.896Z,2.22
2019-02-25T07:08:33.032Z,2.25
2019-02-25T07:09:21.963Z,2.18
2019-02-25T07:10:16.465Z,2.20
2019-02-25T07:10:56.514Z,2.24
2019-02-25T07:11:54.258Z,2.34
2019-02-25T07:12:37.210Z,2.27
2019-02-25T07:13:34.717Z,2.23
2019-02-25T07:14:37.451Z,2.14
2019-02-25T07:15:30.356Z,2.19
2019-02-25T07:16:23.723Z,2.20
2019-02-25T07:17:18.121Z,2.23
2019-02-25T07:18:18.621Z,2.27
2019-02-25T07:19:11.302Z,2.28
2019-02-25T07:20:08.440Z,2.30
2019-02-25T07:20:59.653Z,2.25
2019-02-25T07:21:49.129Z,2.24
2019-02-25T07:22:49.650Z,2.27
2019-02-25T07:23:42.468Z,2.33
2019-02-25T07:24:55.220Z,2.41
2019-02-25T07:25:52.514Z,2.44
2019-02-25T07:26:35.961Z,2.46
2019-02-25T07:27:28.493Z,2.51
2019-02-25T07:28:20.080Z,2.56
2019-02-25T07:29:05.866Z,2.59
2019-02-25T07:30:01.246Z,2.64
2019-02-25T07:30:53.959Z,2.74
2019-02-25T07:31:44.518Z,2.85
2019-02-25T07:32:30.782Z,2.90
2019-02-25T07:33:15.784Z,3.00
2019-02-25T07:34:10.414Z,2.92
2019-02-25T07:34:56.348Z,2.96
2019-02-25T07:35:46.187Z,3.17
2019-02-25T07:36:43.583Z,3.21
2019-02-25T07:37:46.949Z,3.23
2019-02-25T07:38:39.769Z,3.23
2019-02-25T07:39:42.198Z,3.21
2019-02-25T07:40:42.352Z,3.26
2019-02-25T07:41:33.996Z,3.30
2019-02-25T07:42:32.016Z,3.25
2019-02-25T07:43:26.365Z,3.27
2019-02-25T07:44:21.930Z,3.34
2019-02-25T07:45:16.333Z,3.40
2019-02-25T07:45:59.577Z,3.55
2019-02-25T07:47:03.061Z,3.61
2019-02-25T07:48:00.487Z,3.63
2019-02-25T07:48:53.442Z,3.61
2019-02-25T07:50:02.936Z,3.82
2019-02-25T07:50:51.298Z,3.92
2019-02-25T07:51:38.504Z,3.99
2019-02-25T07:52:22.438Z,3.96
2019-02-25T07:53:13.520Z,4.02
2019-02-25T07:54:10.792Z,4.04
2019-02-25T07:55:06.540Z,4.25
2019-02-25T07:56:02.703Z,4.33
2019-02-25T07:56:55.735Z,4.54
2019-02-25T07:57:43.229Z,4.51
2019-02-25T07:58:27.137Z,4.59
2019-02-25T07:59:11.632Z,4.57
2019-02-25T07:59:55.737Z,4.71
2019-02-25T08:00:42.183Z,4.66
2019-02-25T08:01:36.573Z,4.57
2019-02-25T08:02:31.009Z,4.76
2019-02-25T08:03:16.924Z,4.80
2019-02-25T08:04:09.398Z,4.86
2019-02-25T08:04:55.687Z,4.84
2019-02-25T08:05:59.179Z,5.01
2019-02-25T08:07:02.498Z,4.88
2019-02-25T08:07:56.882Z,5.03
2019-02-25T08:08:56.881Z,4.96
2019-02-25T08:09:40.647Z,4.99
2019-02-25T08:10:25.315Z,4.98
2019-02-25T08:11:35.002Z,5.08
2019-02-25T08:12:18.306Z,5.07
2019-02-25T08:13:16.011Z,5.05
2019-02-25T08:14:07.320Z,5.07
2019-02-25T08:14:49.916Z,5.08
2019-02-25T08:15:47.123Z,5.12
2019-02-25T08:16:41.760Z,5.14
2019-02-25T08:17:32.287Z,5.17
2019-02-25T08:18:29.440Z,5.29
2019-02-25T08:19:22.226Z,5.41
2019-02-25T08:20:16.604Z,5.41
2019-02-25T08:21:02.946Z,5.38
2019-02-25T08:22:03.862Z,5.37
2019-02-25T08:22:47.620Z,5.48